createdAt,value
2022-10-29T00:01:39.709Z,26.95
2022-10-29T00:04:09.421Z,23.52
2022-10-29T00:06:38.916Z,25.20
2022-10-29T00:09:11.553Z,37.65
2022-10-29T00:11:40.819Z,25.92
2022-10-29T00:14:10.344Z,29.10
2022-10-29T00:16:41.192Z,24.67
2022-10-29T00:19:10.822Z,31.25
2022-10-29T00:21:40.506Z,31.38
2022-10-29T00:24:12.632Z,28.27
2022-10-29T00:26:41.827Z,30.65
2022-10-29T00:29:11.474Z,28.23
2022-10-29T00:31:40.722Z,25.70
2022-10-29T00:34:10.129Z,30.92
2022-10-29T00:36:39.666Z,30.63
2022-10-29T00:39:08.856Z,28.38
2022-10-29T00:41:39.616Z,29.05
2022-10-29T00:44:31.047Z,28.13
2022-10-29T00:47:12.070Z,27.65
2022-10-29T00:49:43.931Z,25.77
2022-10-29T00:52:14.806Z,24.55
2022-10-29T00:54:47.650Z,28.40
2022-10-29T00:57:21.909Z,29.65
2022-10-29T00:59:52.085Z,23.67
2022-10-29T01:02:21.745Z,26.60
2022-10-29T01:04:53.248Z,27.65
2022-10-29T01:07:23.573Z,31.83
2022-10-29T01:09:53.287Z,23.00
2022-10-29T01:12:44.593Z,28.38
2022-10-29T01:15:23.450Z,27.98
2022-10-29T01:18:06.500Z,31.00
2022-10-29T01:21:09.327Z,26.30
2022-10-29T01:23:57.651Z,25.92
2022-10-29T01:27:00.731Z,27.13
2022-10-29T01:29:46.813Z,26.58
2022-10-29T01:32:22.848Z,27.52
2022-10-29T01:34:59.694Z,30.50
2022-10-29T01:37:40.008Z,29.77
2022-10-29T01:40:19.046Z,25.17
2022-10-29T01:42:54.524Z,24.33
2022-10-29T01:45:28.114Z,23.02
2022-10-29T01:48:01.803Z,24.35
2022-10-29T01:50:31.325Z,25.98
2022-10-29T01:53:02.217Z,25.95
2022-10-29T01:55:35.298Z,27.08
2022-10-29T01:58:05.445Z,26.15
2022-10-29T02:00:49.267Z,26.48
2022-10-29T02:03:31.769Z,26.83
2022-10-29T02:06:12.639Z,22.55
2022-10-29T02:08:53.267Z,30.25
2022-10-29T02:11:27.591Z,23.73
2022-10-29T02:14:03.634Z,32.00
2022-10-29T02:16:34.412Z,31.70
2022-10-29T02:19:06.641Z,23.83
2022-10-29T02:21:35.814Z,24.38
2022-10-29T02:24:05.595Z,26.45
2022-10-29T02:26:34.890Z,29.55
2022-10-29T02:29:04.099Z,23.10
2022-10-29T02:36:38.111Z,22.60
2022-10-29T02:39:07.383Z,26.83
2022-10-29T02:41:36.889Z,23.85
2022-10-29T02:44:06.318Z,22.50
2022-10-29T02:46:39.769Z,23.73
2022-10-29T02:49:09.515Z,23.00
2022-10-29T02:51:40.760Z,26.15
2022-10-29T02:54:10.280Z,29.60
2022-10-29T02:56:39.547Z,22.48
2022-10-29T02:59:11.708Z,17.58
2022-10-29T03:01:41.646Z,20.45
2022-10-29T03:04:12.826Z,21.17
2022-10-29T03:06:43.790Z,21.08
2022-10-29T03:09:13.106Z,22.42
2022-10-29T03:11:42.466Z,15.88
2022-10-29T03:14:11.837Z,19.73
2022-10-29T03:16:41.260Z,15.98
2022-10-29T03:19:10.725Z,18.73
2022-10-29T03:21:40.172Z,15.05
2022-10-29T03:24:10.945Z,17.08
2022-10-29T03:26:40.696Z,17.65
2022-10-29T03:29:09.997Z,17.80
2022-10-29T03:31:39.213Z,19.42
2022-10-29T03:34:08.585Z,13.18
2022-10-29T03:36:37.813Z,11.65
2022-10-29T03:39:07.121Z,14.30
2022-10-29T03:41:38.128Z,11.85
2022-10-29T03:44:07.587Z,10.00
2022-10-29T03:46:37.112Z,11.77
2022-10-29T03:49:06.559Z,14.55
2022-10-29T03:51:35.775Z,15.15
2022-10-29T03:54:05.570Z,18.77
2022-10-29T03:56:36.281Z,17.52
2022-10-29T03:59:05.862Z,16.00
2022-10-29T04:01:35.470Z,21.55
2022-10-29T04:04:05.095Z,11.02
2022-10-29T04:06:34.959Z,12.70
2022-10-29T04:09:04.593Z,17.45
2022-10-29T04:11:33.813Z,16.98
2022-10-29T04:14:04.767Z,19.10
2022-10-29T04:16:34.577Z,22.10
2022-10-29T04:19:04.074Z,16.10
2022-10-29T04:30:02.903Z,21.17
2022-10-29T04:32:32.515Z,15.30
2022-10-29T04:35:01.749Z,19.92
2022-10-29T04:37:31.484Z,14.57
2022-10-29T04:40:00.949Z,16.30
2022-10-29T04:42:30.183Z,17.00
2022-10-29T04:44:59.546Z,21.42
2022-10-29T04:47:30.622Z,20.80
2022-10-29T04:49:59.808Z,19.00
2022-10-29T04:52:29.448Z,16.02
2022-10-29T04:54:58.726Z,20.42
2022-10-29T04:57:28.182Z,22.98
2022-10-29T04:59:57.421Z,21.88
2022-10-29T05:02:26.825Z,22.70
2022-10-29T05:04:57.629Z,25.08
2022-10-29T05:07:27.232Z,22.35
2022-10-29T05:09:56.436Z,31.23
2022-10-29T05:12:25.922Z,24.77
2022-10-29T05:14:55.141Z,25.17
2022-10-29T05:17:24.650Z,30.15
2022-10-29T05:19:53.967Z,28.77
2022-10-29T05:22:24.966Z,29.35
2022-10-29T05:24:54.284Z,31.98
2022-10-29T05:27:23.810Z,29.30
2022-10-29T05:29:53.168Z,28.15
2022-10-29T05:32:22.642Z,33.95
2022-10-29T05:34:51.998Z,32.92
2022-10-29T05:37:25.701Z,31.50
2022-10-29T05:39:55.018Z,24.73
2022-10-29T05:42:24.620Z,30.70
2022-10-29T05:44:53.817Z,28.00
2022-10-29T05:47:23.266Z,23.10
2022-10-29T05:49:52.571Z,23.33
2022-10-29T05:52:21.997Z,21.15
2022-10-29T05:54:52.764Z,24.05
2022-10-29T05:57:22.225Z,20.90
2022-10-29T05:59:51.530Z,27.40
2022-10-29T06:02:21.210Z,21.33
2022-10-29T06:04:50.632Z,18.00
2022-10-29T06:07:20.052Z,16.77
2022-10-29T06:09:49.346Z,15.20
2022-10-29T06:12:20.201Z,14.82
2022-10-29T06:14:49.492Z,20.45
2022-10-29T06:17:19.011Z,14.32
2022-10-29T06:19:48.289Z,20.95
2022-10-29T06:22:17.696Z,10.07
2022-10-29T06:24:47.002Z,15.35
2022-10-29T06:27:16.769Z,17.27
2022-10-29T06:29:47.470Z,15.63
2022-10-29T06:32:16.937Z,12.73
2022-10-29T06:34:46.222Z,9.98
2022-10-29T06:37:15.938Z,13.70
2022-10-29T06:39:45.251Z,7.82
2022-10-29T06:42:14.980Z,9.65
2022-10-29T06:44:44.201Z,9.45
2022-10-29T06:47:15.029Z,8.50
2022-10-29T06:49:44.603Z,8.80
2022-10-29T06:52:14.128Z,9.65
2022-10-29T06:54:43.536Z,7.45
2022-10-29T06:57:12.967Z,5.40
2022-10-29T06:59:42.134Z,5.97
2022-10-29T07:02:15.099Z,6.60
2022-10-29T07:04:45.129Z,6.88
2022-10-29T07:07:14.789Z,13.15
2022-10-29T07:09:44.114Z,7.53
2022-10-29T07:12:13.523Z,11.63
2022-10-29T07:14:42.724Z,6.43
2022-10-29T07:17:12.417Z,10.63
2022-10-29T07:19:43.093Z,10.35
2022-10-29T07:22:12.692Z,9.43
2022-10-29T07:24:41.945Z,9.45
2022-10-29T07:27:11.415Z,9.27
2022-10-29T07:29:40.969Z,11.68
2022-10-29T07:32:10.325Z,11.00
2022-10-29T07:34:39.850Z,7.78
2022-10-29T07:37:10.516Z,13.13
2022-10-29T07:39:40.036Z,14.93
2022-10-29T07:42:09.620Z,9.48
2022-10-29T07:44:39.051Z,10.15
2022-10-29T07:47:08.324Z,11.15
2022-10-29T07:49:37.967Z,13.30
2022-10-29T07:52:07.431Z,10.07
2022-10-29T07:54:38.431Z,6.82
2022-10-29T07:57:07.623Z,9.10
2022-10-29T07:59:36.982Z,10.70
2022-10-29T08:02:06.461Z,5.95
2022-10-29T08:04:35.851Z,11.32
2022-10-29T08:07:05.557Z,8.77
2022-10-29T08:09:34.785Z,6.65
2022-10-29T08:12:07.195Z,11.68
2022-10-29T08:14:36.750Z,9.60
2022-10-29T08:17:06.061Z,7.85
2022-10-29T08:19:35.269Z,8.88
2022-10-29T08:22:04.779Z,5.28
2022-10-29T08:24:34.117Z,9.90
2022-10-29T08:27:05.154Z,8.35
2022-10-29T08:29:34.461Z,8.93
2022-10-29T08:32:03.990Z,9.35
2022-10-29T08:34:33.182Z,9.90
2022-10-29T08:37:03.233Z,15.07
2022-10-29T08:39:32.517Z,11.48
2022-10-29T08:42:16.071Z,7.97
2022-10-29T08:45:06.409Z,8.23
2022-10-29T08:47:45.559Z,4.93
2022-10-29T08:50:21.970Z,8.77
2022-10-29T08:53:04.898Z,8.95
2022-10-29T08:55:42.173Z,8.63
2022-10-29T08:58:25.330Z,7.65
2022-10-29T09:00:58.332Z,10.98
2022-10-29T09:03:29.965Z,8.85
2022-10-29T09:06:10.856Z,8.48
2022-10-29T09:08:54.899Z,9.02
2022-10-29T09:11:38.419Z,12.05
2022-10-29T09:14:32.454Z,5.15
2022-10-29T09:17:11.608Z,9.73
2022-10-29T09:20:00.772Z,11.75
2022-10-29T09:22:38.264Z,8.65
2022-10-29T09:25:17.061Z,7.18
2022-10-29T09:27:55.696Z,8.77
2022-10-29T09:30:32.487Z,7.55
2022-10-29T09:33:07.549Z,4.95
2022-10-29T09:38:15.501Z,7.75
2022-10-29T09:40:45.816Z,9.27
2022-10-29T09:43:25.238Z,11.18
2022-10-29T09:46:02.594Z,6.28
2022-10-29T09:48:38.067Z,8.15
2022-10-29T09:51:22.068Z,8.77
2022-10-29T09:53:52.444Z,6.55
2022-10-29T09:56:22.130Z,9.85
2022-10-29T09:58:58.462Z,10.10
2022-10-29T10:01:29.323Z,6.28
2022-10-29T10:04:17.041Z,11.10
2022-10-29T10:07:05.666Z,6.82
2022-10-29T10:10:02.690Z,6.97
2022-10-29T10:12:47.409Z,8.18
2022-10-29T10:15:29.921Z,12.25
2022-10-29T10:18:03.127Z,8.07
2022-10-29T10:20:36.368Z,11.15
2022-10-29T10:23:22.310Z,7.57
2022-10-29T10:25:58.806Z,12.00
2022-10-29T10:28:34.620Z,7.47
2022-10-29T10:31:14.144Z,5.85
2022-10-29T10:33:53.816Z,8.13
2022-10-29T10:36:25.989Z,5.68
2022-10-29T10:38:59.035Z,8.63
2022-10-29T10:41:31.496Z,7.07
2022-10-29T10:44:03.476Z,7.13
2022-10-29T10:46:35.847Z,3.58
2022-10-29T10:49:13.602Z,8.48
2022-10-29T10:51:47.604Z,5.25
2022-10-29T10:54:31.404Z,4.63
2022-10-29T10:57:02.996Z,8.13
2022-10-29T10:59:46.535Z,7.47
2022-10-29T11:02:26.527Z,8.60
2022-10-29T11:05:05.173Z,6.63
2022-10-29T11:07:41.647Z,6.97
2022-10-29T11:10:16.111Z,5.57
2022-10-29T11:12:51.189Z,8.13
2022-10-29T11:15:30.698Z,5.70
2022-10-29T11:18:05.938Z,6.57
2022-10-29T11:23:30.634Z,7.00
2022-10-29T11:26:09.153Z,8.38
2022-10-29T11:28:42.895Z,7.43
2022-10-29T11:31:19.988Z,8.38
2022-10-29T11:33:58.414Z,6.82
2022-10-29T11:36:32.842Z,8.80
2022-10-29T11:39:10.209Z,9.48
2022-10-29T11:41:46.298Z,7.72
2022-10-29T11:44:20.784Z,5.43
2022-10-29T11:47:08.400Z,11.70
2022-10-29T11:49:53.270Z,8.52
2022-10-29T11:52:35.965Z,8.52
2022-10-29T11:55:29.973Z,8.05
2022-10-29T11:58:05.027Z,5.90
2022-10-29T12:00:49.419Z,9.27
2022-10-29T12:03:34.129Z,8.75
2022-10-29T12:06:15.442Z,6.10
2022-10-29T12:08:59.751Z,8.70
2022-10-29T12:11:43.054Z,8.23
2022-10-29T12:14:24.422Z,4.15
2022-10-29T12:17:01.029Z,6.53
2022-10-29T12:19:43.508Z,6.38
2022-10-29T12:22:26.043Z,7.30
2022-10-29T12:25:15.317Z,6.25
2022-10-29T12:27:59.156Z,6.82
2022-10-29T12:30:31.747Z,7.43
2022-10-29T12:33:06.707Z,3.05
2022-10-29T12:35:43.945Z,4.25
2022-10-29T12:38:28.074Z,5.22
2022-10-29T12:41:07.598Z,9.88
2022-10-29T12:43:40.119Z,7.95
2022-10-29T12:46:21.749Z,5.18
2022-10-29T12:49:09.656Z,8.85
2022-10-29T12:51:46.929Z,8.10
2022-10-29T12:54:35.880Z,5.15
2022-10-29T12:57:35.578Z,8.30
2022-10-29T13:00:33.869Z,7.50
2022-10-29T13:03:03.998Z,5.30
2022-10-29T13:05:42.650Z,4.57
2022-10-29T13:08:36.385Z,6.68
2022-10-29T13:11:24.543Z,3.65
2022-10-29T13:14:03.445Z,6.28
2022-10-29T13:16:33.578Z,8.13
2022-10-29T13:19:29.952Z,7.38
2022-10-29T13:24:31.021Z,3.72
2022-10-29T13:27:03.301Z,4.93
2022-10-29T13:29:46.291Z,5.57
2022-10-29T13:32:35.736Z,6.30
2022-10-29T13:35:27.322Z,10.52
2022-10-29T13:37:58.207Z,7.78
2022-10-29T13:41:05.072Z,8.40
2022-10-29T13:46:29.914Z,6.43
2022-10-29T13:49:01.272Z,4.28
2022-10-29T13:51:36.153Z,5.53
2022-10-29T13:54:10.317Z,9.13
2022-10-29T13:56:47.266Z,5.25
2022-10-29T13:59:26.521Z,4.75
2022-10-29T14:02:17.475Z,5.15
2022-10-29T14:04:53.366Z,7.57
2022-10-29T14:07:30.347Z,8.52
2022-10-29T14:10:08.146Z,6.35
2022-10-29T14:12:39.622Z,6.00
2022-10-29T14:15:12.089Z,5.38
2022-10-29T14:17:43.614Z,8.23
2022-10-29T14:20:24.721Z,3.22
2022-10-29T14:22:54.629Z,4.05
2022-10-29T14:25:33.637Z,6.35
2022-10-29T14:28:20.803Z,6.60
2022-10-29T14:31:00.005Z,8.45
2022-10-29T14:33:32.975Z,8.50
2022-10-29T14:36:10.226Z,4.57
2022-10-29T14:38:44.489Z,6.85
2022-10-29T14:41:15.916Z,8.60
2022-10-29T14:43:47.066Z,6.95
2022-10-29T14:46:26.423Z,5.72
2022-10-29T14:49:04.328Z,6.30
2022-10-29T14:51:40.093Z,7.20
2022-10-29T14:54:18.407Z,6.63
2022-10-29T14:56:52.021Z,6.97
2022-10-29T14:59:28.084Z,6.80
2022-10-29T15:02:17.419Z,13.63
2022-10-29T15:05:02.985Z,7.45
2022-10-29T15:07:37.289Z,4.80
2022-10-29T15:10:24.518Z,5.53
2022-10-29T15:12:55.407Z,4.10
2022-10-29T15:15:28.884Z,3.22
2022-10-29T15:18:02.871Z,4.30
2022-10-29T15:20:46.682Z,4.82
2022-10-29T15:23:21.633Z,7.70
2022-10-29T15:25:54.241Z,5.57
2022-10-29T15:28:27.192Z,3.70
2022-10-29T15:31:07.419Z,7.85
2022-10-29T15:33:38.368Z,3.10
2022-10-29T15:36:09.916Z,5.78
2022-10-29T15:39:18.865Z,7.35
2022-10-29T15:41:53.919Z,5.03
2022-10-29T15:44:32.969Z,5.75
2022-10-29T15:47:04.030Z,6.70
2022-10-29T15:49:33.270Z,7.07
2022-10-29T15:52:04.789Z,7.78
2022-10-29T15:54:35.800Z,10.98
2022-10-29T15:57:05.775Z,10.43
2022-10-29T15:59:34.990Z,7.40
2022-10-29T16:02:10.388Z,6.10
2022-10-29T16:04:39.834Z,5.38
2022-10-29T16:07:21.267Z,10.07
2022-10-29T16:09:55.949Z,6.07
2022-10-29T16:12:25.663Z,9.45
2022-10-29T16:14:55.066Z,6.43
2022-10-29T16:17:24.337Z,7.10
2022-10-29T16:19:53.953Z,6.93
2022-10-29T16:22:28.991Z,5.55
2022-10-29T16:24:58.775Z,7.22
2022-10-29T16:27:28.199Z,11.80
2022-10-29T16:29:57.705Z,10.07
2022-10-29T16:32:27.330Z,4.65
2022-10-29T16:34:56.704Z,5.47
2022-10-29T16:37:27.461Z,7.72
2022-10-29T16:39:56.958Z,5.70
2022-10-29T16:42:31.790Z,8.10
2022-10-29T16:45:01.292Z,6.63
2022-10-29T16:47:31.002Z,7.82
2022-10-29T16:50:00.408Z,5.63
2022-10-29T16:52:32.832Z,5.85
2022-10-29T16:55:02.224Z,3.88
2022-10-29T16:57:31.812Z,6.70
2022-10-29T17:00:01.016Z,9.20
2022-10-29T17:02:30.552Z,5.70
2022-10-29T17:04:59.760Z,7.40
2022-10-29T17:07:30.398Z,5.53
2022-10-29T17:09:59.932Z,11.18
2022-10-29T17:12:29.468Z,6.47
2022-10-29T17:14:58.816Z,7.28
2022-10-29T17:17:30.764Z,6.88
2022-10-29T17:20:00.184Z,5.55
2022-10-29T17:22:31.090Z,8.95
2022-10-29T17:25:00.410Z,5.53
2022-10-29T17:27:29.864Z,5.13
2022-10-29T17:29:59.234Z,6.60
2022-10-29T17:32:32.714Z,8.18
2022-10-29T17:35:02.346Z,8.48
2022-10-29T17:37:33.319Z,5.88
2022-10-29T17:40:06.827Z,11.45
2022-10-29T17:42:37.412Z,6.53
2022-10-29T17:45:08.074Z,13.23
2022-10-29T17:47:37.497Z,9.35
2022-10-29T17:50:07.664Z,27.95
2022-10-29T17:52:38.493Z,5.07
2022-10-29T17:55:08.751Z,3.83
2022-10-29T17:57:38.381Z,4.07
2022-10-29T18:00:08.967Z,7.20
2022-10-29T18:02:38.554Z,6.43
2022-10-29T18:05:09.026Z,10.95
2022-10-29T18:07:39.962Z,8.80
2022-10-29T18:10:10.504Z,4.15
2022-10-29T18:12:40.033Z,5.97
2022-10-29T18:15:10.494Z,6.60
2022-10-29T18:17:40.537Z,6.35
2022-10-29T18:20:11.181Z,8.30
2022-10-29T18:22:42.231Z,5.10
2022-10-29T18:25:12.099Z,8.18
2022-10-29T18:27:41.964Z,6.25
2022-10-29T18:30:12.060Z,7.88
2022-10-29T18:32:41.319Z,7.57
2022-10-29T18:35:11.474Z,6.18
2022-10-29T18:37:42.133Z,5.88
2022-10-29T18:40:13.213Z,5.55
2022-10-29T18:42:42.432Z,7.13
2022-10-29T18:45:12.752Z,7.50
2022-10-29T18:47:42.371Z,7.47
2022-10-29T18:50:11.963Z,13.07
2022-10-29T18:52:42.799Z,10.65
2022-10-29T18:55:12.304Z,6.97
2022-10-29T18:57:41.632Z,9.52
2022-10-29T19:00:12.445Z,8.38
2022-10-29T19:02:41.968Z,8.30
2022-10-29T19:05:11.586Z,6.55
2022-10-29T19:07:42.212Z,5.75
2022-10-29T19:10:12.089Z,7.35
2022-10-29T19:12:41.328Z,4.18
2022-10-29T19:15:11.544Z,6.00
2022-10-29T19:17:41.623Z,4.57
2022-10-29T19:20:12.419Z,9.45
2022-10-29T19:22:43.108Z,6.35
2022-10-29T19:25:12.637Z,4.63
2022-10-29T19:27:42.348Z,3.53
2022-10-29T19:30:13.161Z,4.30
2022-10-29T19:32:42.487Z,5.38
2022-10-29T19:35:12.119Z,7.80
2022-10-29T19:37:43.354Z,5.57
2022-10-29T19:40:13.118Z,6.78
2022-10-29T19:42:42.606Z,6.45
2022-10-29T19:45:12.370Z,8.73
2022-10-29T19:47:41.838Z,3.63
2022-10-29T19:50:11.604Z,10.30
2022-10-29T19:52:42.533Z,4.25
2022-10-29T19:55:13.839Z,5.18
2022-10-29T19:57:43.369Z,6.22
2022-10-29T20:00:16.772Z,10.60
2022-10-29T20:02:47.458Z,4.28
2022-10-29T20:05:16.958Z,5.22
2022-10-29T20:07:49.211Z,7.38
2022-10-29T20:10:18.584Z,8.48
2022-10-29T20:12:48.104Z,6.82
2022-10-29T20:15:17.548Z,8.10
2022-10-29T20:17:47.042Z,5.03
2022-10-29T20:20:17.354Z,15.57
2022-10-29T20:22:50.210Z,9.75
2022-10-29T20:25:24.063Z,7.40
2022-10-29T20:27:53.865Z,6.00
2022-10-29T20:30:23.371Z,8.73
2022-10-29T20:32:52.808Z,3.75
2022-10-29T20:35:22.579Z,5.93
2022-10-29T20:37:53.189Z,6.53
2022-10-29T20:40:24.068Z,8.75
2022-10-29T20:42:54.074Z,7.10
2022-10-29T20:45:23.290Z,6.00
2022-10-29T20:47:52.687Z,3.83
2022-10-29T20:50:22.199Z,5.50
2022-10-29T20:52:53.778Z,6.22
2022-10-29T20:55:23.346Z,3.17
2022-10-29T20:57:52.529Z,7.65
2022-10-29T21:00:22.295Z,5.35
2022-10-29T21:02:51.500Z,4.97
2022-10-29T21:05:20.767Z,3.17
2022-10-29T21:07:50.393Z,4.85
2022-10-29T21:10:21.090Z,7.28
2022-10-29T21:12:50.610Z,5.07
2022-10-29T21:15:19.933Z,5.97
2022-10-29T21:17:49.103Z,5.40
2022-10-29T21:20:18.692Z,9.25
2022-10-29T21:22:47.905Z,5.28
2022-10-29T21:25:17.384Z,5.38
2022-10-29T21:27:48.322Z,2.33
2022-10-29T21:30:17.744Z,8.77
2022-10-29T21:32:47.249Z,4.15
2022-10-29T21:35:16.774Z,7.68
2022-10-29T21:37:46.109Z,4.22
2022-10-29T21:40:15.658Z,2.95
2022-10-29T21:42:44.891Z,4.88
2022-10-29T21:45:15.685Z,7.47
2022-10-29T21:47:45.213Z,5.57
2022-10-29T21:50:14.366Z,3.88
2022-10-29T21:52:43.697Z,5.13
2022-10-29T21:55:14.014Z,3.70
2022-10-29T21:57:45.373Z,6.28
2022-10-29T22:00:17.741Z,4.78
2022-10-29T22:02:47.053Z,7.00
2022-10-29T22:05:16.728Z,4.95
2022-10-29T22:07:46.662Z,3.00
2022-10-29T22:10:16.170Z,7.05
2022-10-29T22:12:45.378Z,5.00
2022-10-29T22:15:16.138Z,4.97
2022-10-29T22:17:45.707Z,6.38
2022-10-29T22:20:15.139Z,5.18
2022-10-29T22:22:44.860Z,7.13
2022-10-29T22:25:23.038Z,6.85
2022-10-29T22:27:52.364Z,5.30
2022-10-29T22:30:23.156Z,6.75
2022-10-29T22:32:52.390Z,3.45
2022-10-29T22:35:24.703Z,3.60
2022-10-29T22:37:55.688Z,6.97
2022-10-29T22:40:25.098Z,4.32
2022-10-29T22:42:54.859Z,4.38
2022-10-29T22:45:30.640Z,7.65
2022-10-29T22:48:00.206Z,6.70
2022-10-29T22:50:29.451Z,3.95
2022-10-29T22:52:59.182Z,4.70
2022-10-29T22:55:28.769Z,9.75
2022-10-29T22:57:58.299Z,9.68
2022-10-29T23:00:28.991Z,6.47
2022-10-29T23:02:58.546Z,22.80
2022-10-29T23:05:28.208Z,10.50
2022-10-29T23:07:57.554Z,12.10
2022-10-29T23:10:26.864Z,95.38
2022-10-29T23:12:56.626Z,17.50
2022-10-29T23:15:27.269Z,21.58
2022-10-29T23:17:56.937Z,25.17
2022-10-29T23:20:26.413Z,3.90
2022-10-29T23:22:55.844Z,3.78
2022-10-29T23:25:25.578Z,6.45
2022-10-29T23:27:56.210Z,3.40
2022-10-29T23:30:25.507Z,9.73
2022-10-29T23:32:56.656Z,27.98
2022-10-29T23:35:27.854Z,62.28
2022-10-29T23:37:57.562Z,26.30
2022-10-29T23:40:27.211Z,3.70
2022-10-29T23:42:56.447Z,7.97
2022-10-29T23:45:25.912Z,3.35
2022-10-29T23:47:57.016Z,5.45
2022-10-29T23:50:26.673Z,5.25
2022-10-29T23:52:56.347Z,8.02
2022-10-29T23:55:29.080Z,21.70
2022-10-29T23:57:58.697Z,25.00
